^^
Grace C. Lehan Memorial Weather Station Historical Data
Daily Summary for June 26, 2022 Units:  English    Metric   Both
Daily Weekly Monthly Yearly
  High: Low: Average:
Temperature: 73.7 °F 57.8 °F 65.7 °F
Dew Point: 63.8 °F 56.2 °F 59.8 °F
Humidity: 96% 58% 83%
Wind Speed: 2.3mph 0mph 0.2mph
Wind Gust: 12mph - -
Wind- - SW
Pressure: 29.74 in 29.52 in -
Precipitation: 0.00 in    
 
 
Tabular Data for June 26, 2022
Time Temperature Dew Point Pressure Wind Wind Speed Wind Gust Humidity Rainfall Rate (Hourly) solar
00:04 63 °F 60.3 °F 29.56 in Calm     91% 0.09 in 0 W/m2
00:09 63 °F 60.4 °F 29.56 in Calm     91.4% 0.09 in 0 W/m2
00:14 62.9 °F 60.5 °F 29.57 in Calm     92% 0.10 in 0 W/m2
00:19 62.8 °F 60.4 °F 29.56 in Calm     92% 0.10 in 0 W/m2
00:24 62.7 °F 60.3 °F 29.56 in Calm     92% 0.10 in 0 W/m2
00:29 62.7 °F 60.5 °F 29.56 in Calm     92.5% 0.11 in 0 W/m2
00:34 62.6 °F 60.6 °F 29.55 in Calm     93% 0.11 in 0 W/m2
00:39 62.6 °F 60.6 °F 29.56 in Calm     93% 0.12 in 0 W/m2
00:44 62.6 °F 60.5 °F 29.56 in Calm     93% 0.12 in 0 W/m2
00:49 62.5 °F 60.5 °F 29.56 in Calm     93% 0.12 in 0 W/m2
00:54 62.5 °F 60.5 °F 29.56 in Calm     93% 0.12 in 0 W/m2
00:59 62.5 °F 60.6 °F 29.56 in Calm     93.4% 0.12 in 0 W/m2
01:04 62.5 °F 60.8 °F 29.56 in Calm     94% 0.12 in 0 W/m2
01:09 62.4 °F 60.7 °F 29.56 in Calm     94% 0.01 in 0 W/m2
01:14 62.4 °F 60.7 °F 29.56 in Calm     94% 0.01 in 0 W/m2
01:19 62.3 °F 60.6 °F 29.54 in Calm     94% 0.01 in 0 W/m2
01:24 62.3 °F 60.5 °F 29.54 in Calm     94% 0.01 in 0 W/m2
01:29 62.2 °F 60.5 °F 29.54 in Calm     94% 0.01 in 0 W/m2
01:34 62.1 °F 60.4 °F 29.53 in Calm     94% 0.01 in 0 W/m2
01:39 62.1 °F 60.4 °F 29.53 in Calm     94% 0.01 in 0 W/m2
01:44 62.1 °F 60.3 °F 29.53 in Calm     94% 0.01 in 0 W/m2
01:49 62 °F 60.3 °F 29.53 in Calm     94% 0.01 in 0 W/m2
01:54 62 °F 60.2 °F 29.52 in Calm     94% 0.01 in 0 W/m2
01:59 61.9 °F 60.2 °F 29.52 in Calm     94% 0.01 in 0 W/m2
02:04 61.9 °F 60.2 °F 29.52 in Calm     94% 0.01 in 0 W/m2
02:09 61.8 °F 60.1 °F 29.53 in Calm     94% 0.00 in 0 W/m2
02:14 61.8 °F 60 °F 29.53 in Calm     94% 0.00 in 0 W/m2
02:19 61.7 °F 59.9 °F 29.53 in Calm     94% 0.00 in 0 W/m2
02:24 61.6 °F 60.2 °F 29.54 in Calm     95% 0.00 in 0 W/m2
02:29 61.6 °F 60.1 °F 29.54 in Calm     95% 0.00 in 0 W/m2
02:34 61.5 °F 60.1 °F 29.54 in Calm     95% 0.00 in 0 W/m2
02:39 61.5 °F 59.9 °F 29.54 in Calm     94.7% 0.00 in 0 W/m2
02:44 61.4 °F 59.7 °F 29.54 in Calm     94% 0.00 in 0 W/m2
02:49 61.3 °F 59.6 °F 29.54 in Calm     94% 0.00 in 0 W/m2
02:54 61.2 °F 59.4 °F 29.54 in Calm     94% 0.00 in 0 W/m2
02:59 61.1 °F 59.5 °F 29.54 in Calm     94.6% 0.00 in 0 W/m2
03:04 60.9 °F 59.5 °F 29.55 in Calm     95% 0.00 in 0 W/m2
03:09 60.9 °F 59.4 °F 29.54 in Calm     95% 0.00 in 0 W/m2
03:14 60.9 °F 59.4 °F 29.55 in SSW 0.1 mph 3 mph 95% 0.00 in 0 W/m2
03:19 60.9 °F 59.5 °F 29.55 in Calm   3 mph 95% 0.00 in 0 W/m2
03:24 61 °F 59.5 °F 29.55 in Calm   3 mph 95% 0.00 in 0 W/m2
03:29 61 °F 59.5 °F 29.55 in Calm   3 mph 95% 0.00 in 0 W/m2
03:34 61 °F 59.5 °F 29.55 in Calm   3 mph 95% 0.00 in 0 W/m2
03:39 60.9 °F 59.5 °F 29.55 in Calm     95% 0.00 in 0 W/m2
03:44 60.9 °F 59.4 °F 29.55 in Calm     95% 0.00 in 0 W/m2
03:49 60.8 °F 59.4 °F 29.55 in Calm     95% 0.00 in 0 W/m2
03:54 60.8 °F 59.4 °F 29.54 in Calm     95% 0.00 in 0 W/m2
03:59 60.7 °F 59.3 °F 29.55 in Calm     95% 0.00 in 0 W/m2
04:09 60.4 °F 59 °F 29.55 in Calm     95% 0.00 in 0 W/m2
04:14 60.3 °F 58.8 °F 29.55 in Calm     95% 0.00 in 0 W/m2
04:19 60.1 °F 58.7 °F 29.55 in Calm     95% 0.00 in 0 W/m2
04:24 60 °F 58.6 °F 29.55 in Calm     95% 0.00 in 0 W/m2
04:29 60 °F 58.6 °F 29.55 in Calm     95% 0.00 in 0 W/m2
04:34 60 °F 58.6 °F 29.55 in Calm     95% 0.00 in 0 W/m2
04:39 60 °F 58.6 °F 29.55 in Calm     95% 0.00 in 0 W/m2
04:44 60 °F 58.6 °F 29.55 in Calm     95% 0.00 in 0 W/m2
04:48 60 °F 58.6 °F 29.55 in Calm     95% 0.00 in 0 W/m2
05:00 60 °F 58.6 °F 29.55 in Calm     95% 0.00 in 0 W/m2
05:30 59.9 °F 58.8 °F 29.56 in Calm   2 mph 96% 0.00 in 0 W/m2
06:00 59 °F 57.6 °F 29.57 in Calm     95% 0.00 in 0 W/m2
06:30 58.4 °F 57 °F 29.59 in Calm     95% 0.00 in 0 W/m2
07:00 57.8 °F 56.7 °F 29.61 in Calm     96% 0.01 in 3 W/m2
07:30 57.8 °F 56.7 °F 29.62 in Calm     96% 0.01 in 14 W/m2
08:04 58.3 °F 57.2 °F 29.62 in Calm     96% 0.01 in 25 W/m2
08:09 58.4 °F 57.3 °F 29.62 in Calm     96% 0.01 in 33 W/m2
08:14 58.6 °F 57.4 °F 29.62 in Calm     96% 0.01 in 33 W/m2
08:19 58.7 °F 57.6 °F 29.62 in Calm     96% 0.01 in 53 W/m2
08:24 59 °F 57.8 °F 29.62 in Calm     96% 0.01 in 60 W/m2
08:29 59.3 °F 58.1 °F 29.62 in SW 0.1 mph 3 mph 96% 0.01 in 84 W/m2
08:34 59.5 °F 58.4 °F 29.63 in Calm   3 mph 96% 0.01 in 104 W/m2
08:39 59.8 °F 58.6 °F 29.64 in Calm     96% 0.00 in 109 W/m2
08:44 60 °F 58.9 °F 29.64 in Calm     96% 0.00 in 109 W/m2
08:49 60.2 °F 59.1 °F 29.63 in Calm     96% 0.00 in 90 W/m2
08:54 60.4 °F 59.2 °F 29.63 in Calm     96% 0.00 in 98 W/m2
08:59 60.5 °F 59.4 °F 29.63 in Calm     96% 0.00 in 239 W/m2
09:04 60.8 °F 59.6 °F 29.63 in WSW 0.3 mph 5 mph 96% 0.00 in 406 W/m2
09:09 61.4 °F 60.2 °F 29.63 in WSW 0.2 mph 5 mph 96% 0.00 in 425 W/m2
09:14 62 °F 60.9 °F 29.63 in West 0.1 mph 5 mph 96% 0.00 in 446 W/m2
09:19 62.6 °F 61.4 °F 29.63 in West 0.1 mph 5 mph 96% 0.00 in 466 W/m2
09:24 63.6 °F 62.4 °F 29.64 in Calm   5 mph 96% 0.00 in 480 W/m2
09:29 64.6 °F 63.3 °F 29.64 in West 0.4 mph 5 mph 95.4% 0.00 in 499 W/m2
09:34 65.5 °F 63.4 °F 29.64 in Calm   5 mph 93% 0.00 in 527 W/m2
09:39 66.4 °F 63.5 °F 29.64 in West 0.1 mph 2 mph 90.4% 0.00 in 577 W/m2
09:44 67.4 °F 63.8 °F 29.64 in West 0.1 mph 4 mph 88.3% 0.00 in 577 W/m2
09:49 68.2 °F 63.4 °F 29.65 in West 0.2 mph 4 mph 84.9% 0.00 in 585 W/m2
09:54 68.5 °F 62.7 °F 29.64 in Calm   4 mph 81.7% 0.00 in 589 W/m2
09:59 68.8 °F 62.5 °F 29.64 in WSW 0.9 mph 12 mph 80.2% 0.00 in 582 W/m2
10:04 69.2 °F 62.4 °F 29.64 in WSW 0.2 mph 12 mph 78.9% 0.00 in 589 W/m2
10:09 69.6 °F 62.4 °F 29.64 in West 0.4 mph 7 mph 77.8% 0.00 in 598 W/m2
10:14 70.2 °F 62.9 °F 29.65 in WSW 0.4 mph 7 mph 77.7% 0.00 in 613 W/m2
10:19 70.8 °F 63.3 °F 29.65 in West 0.1 mph 7 mph 77.1% 0.00 in 636 W/m2
10:24 71.4 °F 63.3 °F 29.64 in West 0.5 mph 7 mph 75.7% 0.00 in 640 W/m2
10:29 71.8 °F 63.1 °F 29.64 in West 0.2 mph 7 mph 74.2% 0.00 in 640 W/m2
10:34 72.1 °F 63.1 °F 29.64 in Calm   7 mph 73.1% 0.00 in 652 W/m2
10:39 72.3 °F 62.8 °F 29.64 in Calm   1 mph 72% 0.00 in 677 W/m2
10:44 72.3 °F 62.4 °F 29.64 in Calm   2 mph 71% 0.00 in 696 W/m2
10:49 72.6 °F 63 °F 29.64 in Calm   2 mph 71.8% 0.00 in 714 W/m2
10:54 72.6 °F 62.4 °F 29.64 in WSW 0.1 mph 3 mph 70.4% 0.00 in 729 W/m2
10:59 72.9 °F 62.8 °F 29.64 in Calm   3 mph 70.7% 0.00 in 744 W/m2
11:04 73.4 °F 63 °F 29.65 in WSW 0.1 mph 4 mph 69.9% 0.00 in 752 W/m2
11:09 73.6 °F 62.3 °F 29.64 in WSW 0.3 mph 6 mph 67.8% 0.00 in 737 W/m2
11:14 73.6 °F 62.8 °F 29.64 in Calm   6 mph 69% 0.00 in 751 W/m2
11:19 73.7 °F 62.3 °F 29.64 in WSW 0.1 mph 6 mph 67.5% 0.00 in 751 W/m2
11:24 73.5 °F 61.7 °F 29.64 in WSW 0.1 mph 6 mph 66.6% 0.00 in 770 W/m2
11:29 73.4 °F 62.9 °F 29.64 in Calm   6 mph 69.6% 0.00 in 770 W/m2
11:34 73.3 °F 61.7 °F 29.64 in WSW 0.3 mph 6 mph 66.9% 0.00 in 642 W/m2
11:39 73.2 °F 61.6 °F 29.64 in WSW 0.1 mph 6 mph 67% 0.00 in 617 W/m2
11:44 73 °F 61.6 °F 29.64 in West 0.3 mph 6 mph 67.4% 0.00 in 155 W/m2
11:49 72.8 °F 61.4 °F 29.64 in WSW 0.4 mph 6 mph 67.6% 0.00 in 188 W/m2
11:54 72.6 °F 61.9 °F 29.64 in WSW 0.2 mph 6 mph 69% 0.00 in 195 W/m2
11:59 72.7 °F 62 °F 29.64 in WSW 0.6 mph 10 mph 69.1% 0.00 in 213 W/m2
12:04 72.6 °F 61 °F 29.64 in Calm     67% 0.00 in 109 W/m2
12:09 72.6 °F 60.9 °F 29.64 in WSW 0.2 mph 4 mph 66.8% 0.00 in 109 W/m2
12:14 72.4 °F 60.9 °F 29.64 in WSW 0.7 mph 7 mph 67.1% 0.00 in 144 W/m2
12:19 72.3 °F 60.6 °F 29.64 in WSW 1.1 mph 7 mph 66.7% 0.00 in 396 W/m2
12:24 72.2 °F 60 °F 29.64 in SW 0.7 mph 7 mph 65.5% 0.00 in 396 W/m2
12:29 72.2 °F 60.2 °F 29.64 in WSW 1.1 mph 7 mph 66% 0.00 in 420 W/m2
12:34 72.2 °F 60 °F 29.64 in WSW 0.8 mph 7 mph 65.3% 0.00 in 420 W/m2
12:39 72.3 °F 59.9 °F 29.64 in Calm   5 mph 65% 0.00 in 156 W/m2
12:44 72.4 °F 60.4 °F 29.64 in WSW 0.1 mph 5 mph 66% 0.00 in 214 W/m2
12:49 72.3 °F 60.3 °F 29.64 in SSE 0.1 mph 5 mph 66.2% 0.00 in 179 W/m2
12:54 72.1 °F 59.8 °F 29.64 in SW 0.7 mph 5 mph 65.2% 0.00 in 151 W/m2
12:59 72.2 °F 60.1 °F 29.64 in West 0.1 mph 5 mph 65.8% 0.00 in 292 W/m2
13:04 72.3 °F 60.8 °F 29.64 in West 0.2 mph 5 mph 67.1% 0.00 in 292 W/m2
13:09 72.4 °F 60.5 °F 29.64 in WSW 0.8 mph 7 mph 66.2% 0.00 in 244 W/m2
13:14 72.3 °F 60 °F 29.64 in WSW 0.2 mph 7 mph 65.3% 0.00 in 346 W/m2
13:19 72.4 °F 60.9 °F 29.64 in WSW 0.3 mph 7 mph 67.1% 0.00 in 320 W/m2
13:24 72.5 °F 59.9 °F 29.64 in WSW 0.2 mph 7 mph 64.6% 0.00 in 304 W/m2
13:29 72.5 °F 59.8 °F 29.64 in WSW 0.4 mph 7 mph 64.5% 0.00 in 241 W/m2
13:34 72.3 °F 60.1 °F 29.64 in WSW 0.4 mph 7 mph 65.4% 0.00 in 179 W/m2
13:39 72.1 °F 59.9 °F 29.63 in Calm   3 mph 65.4% 0.00 in 309 W/m2
13:44 72.1 °F 60.3 °F 29.63 in SW 0.1 mph 3 mph 66.4% 0.00 in 309 W/m2
13:49 72.2 °F 60.6 °F 29.63 in SW 0.6 mph 6 mph 67% 0.00 in 120 W/m2
13:54 72.5 °F 60.8 °F 29.63 in WSW 0.8 mph 9 mph 66.6% 0.00 in 169 W/m2
13:59 72.8 °F 60.2 °F 29.63 in West 0.2 mph 9 mph 64.8% 0.00 in 149 W/m2
14:04 72.8 °F 60 °F 29.63 in West 0.1 mph 9 mph 64.2% 0.00 in 209 W/m2
14:09 72.8 °F 60.3 °F 29.63 in SSW 0.7 mph 4 mph 64.7% 0.00 in 190 W/m2
14:14 72.9 °F 59.5 °F 29.63 in SW 0.7 mph 7 mph 62.9% 0.00 in 171 W/m2
14:19 72.8 °F 59.9 °F 29.62 in WSW 0.4 mph 7 mph 63.8% 0.00 in 220 W/m2
14:24 72.7 °F 59.8 °F 29.63 in WSW 0.6 mph 7 mph 63.9% 0.00 in 165 W/m2
14:29 72.6 °F 59.6 °F 29.62 in SW 0.4 mph 7 mph 63.8% 0.00 in 153 W/m2
14:34 72.7 °F 59.7 °F 29.63 in WSW 1.1 mph 11 mph 63.7% 0.00 in 202 W/m2
14:39 73 °F 60 °F 29.62 in SW 0.1 mph 11 mph 63.7% 0.00 in 374 W/m2
14:44 73.3 °F 59.2 °F 29.62 in South 0.4 mph 11 mph 61.4% 0.00 in 374 W/m2
14:49 73.5 °F 59.1 °F 29.62 in SSW 0.2 mph 11 mph 60.6% 0.00 in 204 W/m2
14:54 73.7 °F 58.7 °F 29.62 in SSW 1.2 mph 11 mph 59.4% 0.00 in 60 W/m2
14:59 73.6 °F 58.1 °F 29.62 in SW 2.3 mph 11 mph 58.5% 0.00 in 76 W/m2
15:04 73.4 °F 58.2 °F 29.62 in West 0.4 mph 11 mph 59% 0.00 in 76 W/m2
15:09 73.3 °F 58.5 °F 29.62 in SW 1.2 mph 7 mph 59.8% 0.00 in 88 W/m2
15:14 73.3 °F 58.3 °F 29.62 in WSW 0.6 mph 7 mph 59.4% 0.00 in 88 W/m2
15:15 73.3 °F 58.1 °F 29.62 in SSW 1 mph 7 mph 59% 0.00 in 63 W/m2
15:30 73.5 °F 57.8 °F 29.61 in SW 1 mph 10 mph 58% 0.00 in 131 W/m2
16:04 72.8 °F 58.7 °F 29.61 in SSW 0.3 mph 2 mph 61.3% 0.00 in 70 W/m2
16:09 72.8 °F 58.7 °F 29.61 in SSW 0.2 mph 2 mph 61.1% 0.00 in 74 W/m2
16:14 72.9 °F 58.8 °F 29.61 in SSW 0.1 mph 2 mph 61.3% 0.00 in 69 W/m2
16:19 72.7 °F 58.9 °F 29.61 in SW 0.5 mph 5 mph 61.7% 0.00 in 120 W/m2
16:24 72.5 °F 58.2 °F 29.61 in ENE 0.2 mph 5 mph 60.8% 0.00 in 111 W/m2
16:29 72.3 °F 58.1 °F 29.61 in ESE 0.2 mph 5 mph 60.9% 0.00 in 116 W/m2
16:34 72.1 °F 57.6 °F 29.61 in South 0.4 mph 5 mph 60.3% 0.00 in 113 W/m2
16:39 71.9 °F 57.2 °F 29.61 in SSW 0.4 mph 3 mph 59.7% 0.00 in 91 W/m2
16:44 71.7 °F 57 °F 29.61 in SW 0.5 mph 5 mph 59.7% 0.00 in 79 W/m2
16:49 71.6 °F 57.3 °F 29.62 in SW 0.3 mph 5 mph 60.7% 0.00 in 100 W/m2
16:54 71.4 °F 57.3 °F 29.62 in SW 0.2 mph 5 mph 61% 0.00 in 111 W/m2
16:59 71.4 °F 57.7 °F 29.62 in SSW 0.5 mph 9 mph 61.8% 0.00 in 98 W/m2
17:04 71.5 °F 57.9 °F 29.63 in SSW 0.5 mph 9 mph 62.1% 0.00 in 49 W/m2
17:09 71.4 °F 58.4 °F 29.63 in SW 0.6 mph 6 mph 63.6% 0.00 in 40 W/m2
17:14 71.1 °F 58.6 °F 29.63 in SW 0.3 mph 6 mph 64.7% 0.00 in 56 W/m2
17:19 70.9 °F 59.1 °F 29.64 in SSW 0.8 mph 8 mph 66.4% 0.00 in 54 W/m2
17:24 70.6 °F 59.1 °F 29.64 in SW 0.6 mph 8 mph 66.9% 0.00 in 47 W/m2
17:29 70.5 °F 59.3 °F 29.64 in West 0.1 mph 8 mph 67.7% 0.00 in 39 W/m2
17:34 70.3 °F 59.5 °F 29.64 in SW 0.1 mph 8 mph 68.5% 0.00 in 25 W/m2
17:39 70.1 °F 59.5 °F 29.64 in SSW 1.4 mph 6 mph 69% 0.00 in 23 W/m2
17:44 69.9 °F 59.3 °F 29.64 in SSW 0.1 mph 6 mph 69% 0.00 in 14 W/m2
17:49 69.8 °F 59.3 °F 29.64 in South 0.1 mph 6 mph 69.2% 0.00 in 11 W/m2
17:54 69.7 °F 59.4 °F 29.64 in Calm   6 mph 70% 0.00 in 12 W/m2
17:59 69.5 °F 59.6 °F 29.64 in WSW 0.2 mph 6 mph 70.8% 0.00 in 12 W/m2
18:04 69.4 °F 60.2 °F 29.64 in WSW 0.1 mph 6 mph 72.5% 0.00 in 9 W/m2
18:09 69.2 °F 60.6 °F 29.65 in WSW 0.2 mph 4 mph 74% 0.01 in 7 W/m2
18:14 69 °F 61.3 °F 29.65 in WNW 0.9 mph 9 mph 76.4% 0.01 in 14 W/m2
18:19 68.5 °F 61.6 °F 29.66 in West 1 mph 9 mph 78.6% 0.16 in 58 W/m2
18:24 67.8 °F 61.6 °F 29.66 in West 1.1 mph 10 mph 80.7% 0.20 in 76 W/m2
18:29 66.7 °F 61.1 °F 29.66 in WSW 0.4 mph 10 mph 82.2% 0.23 in 76 W/m2
18:34 65.8 °F 60.9 °F 29.66 in West 0.7 mph 10 mph 84.3% 0.23 in 40 W/m2
18:39 65 °F 60.7 °F 29.66 in Calm   9 mph 85.7% 0.23 in 14 W/m2
18:44 64.5 °F 60.5 °F 29.67 in Calm   9 mph 86.7% 0.23 in 5 W/m2
18:49 64.2 °F 60.5 °F 29.67 in Calm   9 mph 87.8% 0.23 in 0 W/m2
18:54 63.9 °F 60.3 °F 29.67 in Calm   9 mph 88.3% 0.23 in 0 W/m2
18:59 63.6 °F 60.1 °F 29.67 in Calm   9 mph 88.5% 0.23 in 0 W/m2
19:04 63.3 °F 60 °F 29.67 in Calm   9 mph 89% 0.23 in 0 W/m2
19:09 63 °F 59.9 °F 29.67 in Calm     89.5% 0.23 in 0 W/m2
19:14 62.8 °F 59.9 °F 29.67 in Calm   1 mph 90% 0.23 in 0 W/m2
19:19 62.6 °F 59.8 °F 29.67 in Calm   1 mph 90.4% 0.23 in 0 W/m2
19:24 62.5 °F 59.8 °F 29.68 in Calm   1 mph 91% 0.23 in 0 W/m2
19:29 62.3 °F 59.6 °F 29.68 in Calm   1 mph 91% 0.23 in 0 W/m2
19:34 62.2 °F 59.5 °F 29.68 in Calm   1 mph 91% 0.23 in 0 W/m2
19:39 62.1 °F 59.6 °F 29.68 in Calm     91.6% 0.00 in 0 W/m2
19:44 62.1 °F 59.8 °F 29.69 in Calm     92% 0.00 in 0 W/m2
19:49 62.2 °F 60 °F 29.69 in Calm     92.5% 0.00 in 0 W/m2
19:54 62.3 °F 60.3 °F 29.69 in Calm     93% 0.00 in 0 W/m2
19:59 62.3 °F 60.3 °F 29.69 in Calm     93% 0.00 in 0 W/m2
20:04 62.1 °F 60.1 °F 29.69 in Calm     93% 0.00 in 0 W/m2
20:09 62.1 °F 60 °F 29.70 in Calm     93% 0.00 in 0 W/m2
20:14 62 °F 59.9 °F 29.70 in Calm     93% 0.00 in 0 W/m2
20:19 61.8 °F 59.8 °F 29.70 in Calm     93% 0.00 in 0 W/m2
20:24 61.8 °F 59.7 °F 29.70 in Calm     93% 0.00 in 0 W/m2
20:29 61.6 °F 59.6 °F 29.70 in Calm     93% 0.00 in 0 W/m2
20:34 61.5 °F 59.5 °F 29.71 in Calm     93% 0.00 in 0 W/m2
20:39 61.4 °F 59.3 °F 29.71 in Calm     93% 0.00 in 0 W/m2
20:44 61.3 °F 59.2 °F 29.71 in Calm     93% 0.00 in 0 W/m2
20:49 61.1 °F 59.1 °F 29.71 in Calm     93% 0.00 in 0 W/m2
20:54 60.9 °F 58.9 °F 29.71 in Calm     93% 0.00 in 0 W/m2
20:59 60.8 °F 58.7 °F 29.72 in Calm     93% 0.00 in 0 W/m2
21:04 60.6 °F 58.6 °F 29.72 in Calm     93% 0.00 in 0 W/m2
21:09 60.5 °F 58.5 °F 29.72 in Calm     93% 0.00 in 0 W/m2
21:14 60.4 °F 58.3 °F 29.72 in Calm     93% 0.00 in 0 W/m2
21:19 60.2 °F 58.2 °F 29.72 in Calm     93% 0.00 in 0 W/m2
21:24 60.1 °F 58 °F 29.72 in Calm     93% 0.00 in 0 W/m2
21:29 59.9 °F 58.1 °F 29.72 in Calm     93.7% 0.00 in 0 W/m2
21:34 59.8 °F 57.8 °F 29.73 in Calm     93% 0.00 in 0 W/m2
21:39 59.7 °F 57.9 °F 29.73 in Calm     94% 0.00 in 0 W/m2
21:44 59.6 °F 57.8 °F 29.73 in Calm     94% 0.00 in 0 W/m2
21:49 59.5 °F 57.8 °F 29.73 in Calm     94% 0.00 in 0 W/m2
21:54 59.5 °F 57.8 °F 29.73 in Calm     94% 0.00 in 0 W/m2
21:59 59.5 °F 57.8 °F 29.73 in Calm     94% 0.00 in 0 W/m2
22:04 59.5 °F 57.8 °F 29.73 in Calm     94% 0.00 in 0 W/m2
22:09 59.5 °F 57.8 °F 29.74 in Calm     94% 0.00 in 0 W/m2
22:14 59.4 °F 57.7 °F 29.74 in Calm     94% 0.00 in 0 W/m2
22:19 59.3 °F 57.6 °F 29.74 in Calm     94% 0.00 in 0 W/m2
22:24 59.3 °F 57.6 °F 29.74 in Calm     94% 0.00 in 0 W/m2
22:29 59.2 °F 57.5 °F 29.74 in Calm     94% 0.00 in 0 W/m2
22:34 59.2 °F 57.4 °F 29.74 in Calm     94% 0.00 in 0 W/m2
22:39 59.1 °F 57.3 °F 29.74 in Calm     94% 0.00 in 0 W/m2
22:44 59 °F 57.3 °F 29.74 in Calm     94% 0.00 in 0 W/m2
22:47 58.9 °F 57.2 °F 29.74 in Calm     94% 0.00 in 0 W/m2
23:00 58.9 °F 57.5 °F 29.74 in Calm     95% 0.00 in 0 W/m2
23:30 57.9 °F 56.2 °F 29.74 in Calm     94% 0.00 in 0 W/m2
Hartford County Weather
Compliments of Weather Underground - 2 mb